METAR Data
IDs: Format: Raw Decoded Include TAF

Data at: 1957 UTC 17 Nov 2019

KSIK 171955Z AUTO 21003KT 10SM CLR 10/02 A2996 RMK AO2
KSIK 171935Z AUTO 00000KT 10SM CLR 10/02 A2997 RMK AO2
KSIK 171915Z AUTO 24004KT 10SM CLR 10/03 A2999 RMK AO2
KSIK 171855Z AUTO 24006KT 10SM CLR 09/03 A3001 RMK AO2
KSIK 171835Z AUTO 27004KT 10SM CLR 09/03 A3001 RMK AO2
KSIK 171815Z AUTO 24006KT 10SM CLR 10/03 A3002 RMK AO2
KSIK 171755Z AUTO 23005KT 10SM CLR 08/02 A3005 RMK AO2
KSIK 171735Z AUTO 24005KT 10SM CLR 08/02 A3006 RMK AO2
KSIK 171715Z AUTO 00000KT 10SM CLR 08/02 A3006 RMK AO2
KSIK 171655Z AUTO 00000KT 10SM CLR 07/02 A3008 RMK AO2
KSIK 171635Z AUTO 00000KT 7SM CLR 06/02 A3010 RMK AO2
KSIK 171615Z AUTO 00000KT 7SM CLR 05/02 A3009 RMK AO2
KSIK 171555Z AUTO 00000KT 5SM BR CLR 04/02 A3010 RMK AO2
KSIK 171535Z AUTO 00000KT 5SM BR CLR 03/02 A3010 RMK AO2
KSIK 171515Z AUTO 00000KT 3SM BR CLR 02/02 A3010 RMK AO2
KSIK 171455Z AUTO 00000KT 2 1/2SM BR CLR 02/02 A3010 RMK AO2
KSIK 171435Z AUTO 00000KT 3SM BR CLR 01/01 A3011 RMK AO2
KSIK 171415Z AUTO 00000KT 2SM BR CLR 00/00 A3011 RMK AO2
KSIK 171355Z AUTO 00000KT 2SM BR CLR 00/00 A3011 RMK AO2
KSIK 171335Z AUTO 00000KT 1 3/4SM BR VV007 M01/M01 A3011 RMK AO2
KSIK 171315Z AUTO 00000KT 1/4SM FZFG VV002 M01/M01 A3011 RMK AO2
KSIK 171255Z AUTO 00000KT 1 1/2SM BR VV007 M01/M01 A3011 RMK AO2
KSIK 171235Z AUTO 00000KT 2SM BR CLR M02/M02 A3011 RMK AO2
KSIK 171215Z AUTO 00000KT 2 1/2SM BR CLR M01/M01 A3011 RMK AO2
KSIK 171155Z AUTO 00000KT 1 3/4SM BR VV007 M01/M01 A3011 RMK AO2
KSIK 171135Z AUTO 00000KT 2SM BR CLR M01/M01 A3011 RMK AO2
KSIK 171115Z AUTO 00000KT 3SM BR CLR M01/M01 A3011 RMK AO2
KSIK 171055Z AUTO 00000KT 3SM BR CLR M02/M02 A3012 RMK AO2
KSIK 171035Z AUTO 00000KT 1 3/4SM BR VV007 M01/M01 A3012 RMK AO2
KSIK 171015Z AUTO 00000KT 3/4SM BR VV005 M01/M01 A3012 RMK AO2
KSIK 170955Z AUTO 00000KT 1SM BR VV007 M01/M01 A3012 RMK AO2
KSIK 170935Z AUTO 00000KT 3SM BR CLR 00/M01 A3013 RMK AO2
KSIK 170915Z AUTO 00000KT 3SM BR CLR 00/00 A3013 RMK AO2
KSIK 170855Z AUTO 00000KT 2 1/2SM BR CLR 00/00 A3014 RMK AO2
KSIK 170835Z AUTO 00000KT 5SM BR CLR 00/00 A3014 RMK AO2
KSIK 170815Z AUTO 00000KT 4SM BR CLR 00/M01 A3015 RMK AO2
KSIK 170755Z AUTO 00000KT 5SM BR CLR 00/00 A3016 RMK AO2
KSIK 170735Z AUTO 00000KT 5SM BR CLR M01/M01 A3017 RMK AO2
KSIK 170715Z AUTO 00000KT 4SM BR CLR 00/M01 A3016 RMK AO2
KSIK 170655Z AUTO 00000KT 5SM BR CLR 00/00 A3016 RMK AO2
KSIK 170635Z AUTO 00000KT 5SM BR CLR 00/00 A3016 RMK AO2
KSIK 170615Z AUTO 00000KT 5SM BR CLR 00/00 A3015 RMK AO2
KSIK 170555Z AUTO 00000KT 5SM BR CLR 00/00 A3015 RMK AO2
KSIK 170535Z AUTO 00000KT 7SM CLR 00/00 A3016 RMK AO2
KSIK 170515Z AUTO 00000KT 7SM CLR 01/00 A3016 RMK AO2
KSIK 170455Z AUTO 00000KT 7SM CLR 01/00 A3017 RMK AO2
KSIK 170435Z AUTO 00000KT 10SM CLR 02/00 A3017 RMK AO2
KSIK 170415Z AUTO 00000KT 10SM CLR 02/00 A3017 RMK AO2
KSIK 170355Z AUTO 06003KT 10SM CLR 02/00 A3017 RMK AO2
KSIK 170335Z AUTO 06003KT 10SM CLR 02/00 A3018 RMK AO2
KSIK 170315Z AUTO 06003KT 10SM CLR 02/00 A3018 RMK AO2
KSIK 170255Z AUTO 06004KT 10SM CLR 03/00 A3018 RMK AO2
KSIK 170235Z AUTO 05004KT 10SM CLR 03/01 A3017 RMK AO2
KSIK 170215Z AUTO 05004KT 10SM CLR 05/01 A3018 RMK AO2
KSIK 170155Z AUTO 05004KT 10SM CLR 02/01 A3019 RMK AO2
KSIK 170135Z AUTO 00000KT 10SM CLR 02/01 A3019 RMK AO2
KSIK 170115Z AUTO 00000KT 10SM CLR 03/01 A3019 RMK AO2
KSIK 170055Z AUTO 00000KT 10SM CLR 03/01 A3019 RMK AO2
KSIK 170035Z AUTO 00000KT 10SM CLR 04/01 A3019 RMK AO2
KSIK 170015Z AUTO 00000KT 10SM CLR 05/01 A3019 RMK AO2
KSIK 162355Z AUTO 00000KT 10SM CLR 05/01 A3019 RMK AO2
KSIK 162335Z AUTO 00000KT 10SM CLR 06/01 A3019 RMK AO2
KSIK 162315Z AUTO 00000KT 10SM CLR 07/02 A3019 RMK AO2
KSIK 162255Z AUTO 00000KT 10SM CLR 09/01 A3019 RMK AO2
KSIK 162235Z AUTO 00000KT 4SM HZ CLR 09/02 A3019 RMK AO2
KSIK 162215Z AUTO 06004KT 4SM HZ CLR 10/02 A3020 RMK AO2
KSIK 162155Z AUTO 05004KT 5SM HZ CLR 11/02 A3020 RMK AO2
KSIK 162135Z AUTO 05004KT 10SM CLR 11/02 A3020 RMK AO2
KSIK 162115Z AUTO 04004KT 10SM CLR 11/02 A3020 RMK AO2
KSIK 162055Z AUTO 00000KT 10SM CLR 11/02 A3021 RMK AO2
KSIK 162035Z AUTO 00000KT 10SM CLR 11/02 A3021 RMK AO2
KSIK 162015Z AUTO 00000KT 10SM CLR 11/01 A3022 RMK AO2
KSIK 161955Z AUTO 04004KT 10SM CLR 11/02 A3023 RMK AO2
KSIK 161935Z AUTO 36004KT 5SM HZ CLR 10/01 A3024 RMK AO2
KSIK 161915Z AUTO 02006KT 10SM CLR 10/01 A3025 RMK AO2
KSIK 161855Z AUTO 02005KT 10SM CLR 10/01 A3026 RMK AO2
KSIK 161835Z AUTO 00000KT 10SM CLR 09/01 A3026 RMK AO2
KSIK 161815Z AUTO 06003KT 10SM CLR 08/00 A3028 RMK AO2
KSIK 161755Z AUTO 07006KT 10SM CLR 08/00 A3029 RMK AO2
KSIK 161735Z AUTO 07005KT 10SM CLR 08/00 A3030 RMK AO2
KSIK 161715Z AUTO 02003KT 10SM CLR 08/00 A3031 RMK AO2
KSIK 161655Z AUTO 00000KT 10SM CLR 07/00 A3032 RMK AO2
KSIK 161635Z AUTO 08004KT 10SM CLR 07/00 A3033 RMK AO2
KSIK 161615Z AUTO 07005KT 10SM CLR 06/00 A3033 RMK AO2
KSIK 161555Z AUTO 04005KT 10SM CLR 05/00 A3034 RMK AO2
KSIK 161535Z AUTO 06005KT 10SM CLR 04/00 A3034 RMK AO2
KSIK 161515Z AUTO 06006KT 10SM CLR 03/00 A3034 RMK AO2
KSIK 161455Z AUTO 05007KT 10SM CLR 03/00 A3034 RMK AO2
KSIK 161435Z AUTO 04004KT 10SM CLR 02/00 A3034 RMK AO2
KSIK 161415Z AUTO 02004KT 10SM CLR 01/00 A3034 RMK AO2
KSIK 161355Z AUTO 01005KT 10SM CLR 00/M01 A3034 RMK AO2
KSIK 161335Z AUTO 02003KT 10SM CLR 00/M01 A3034 RMK AO2
KSIK 161315Z AUTO 02003KT 10SM CLR 00/M02 A3034 RMK AO2
KSIK 161255Z AUTO 02003KT 10SM CLR M01/M02 A3035 RMK AO2
KSIK 161235Z AUTO 00000KT 10SM CLR M01/M02 A3034 RMK AO2
KSIK 161215Z AUTO 36003KT 10SM CLR M01/M03 A3033 RMK AO2
KSIK 161155Z AUTO 35003KT 10SM CLR M01/M02 A3033 RMK AO2
KSIK 161135Z AUTO 00000KT 10SM CLR M01/M03 A3033 RMK AO2
KSIK 161115Z AUTO 00000KT 10SM CLR 00/M02 A3033 RMK AO2
KSIK 161055Z AUTO 00000KT 10SM CLR 00/M02 A3032 RMK AO2
KSIK 161035Z AUTO 00000KT 10SM CLR 00/M02 A3032 RMK AO2
KSIK 161015Z AUTO 00000KT 10SM CLR 00/M02 A3032 RMK AO2
KSIK 160955Z AUTO 00000KT 10SM CLR 00/M02 A3032 RMK AO2
KSIK 160935Z AUTO 00000KT 10SM CLR 00/M02 A3032 RMK AO2
KSIK 160915Z AUTO 01003KT 10SM CLR 00/M02 A3032 RMK AO2
KSIK 160855Z AUTO 00000KT 10SM CLR 00/M02 A3031 RMK AO2
KSIK 160835Z AUTO 00000KT 10SM CLR 00/M02 A3032 RMK AO2
KSIK 160815Z AUTO 00000KT 10SM CLR 00/M02 A3032 RMK AO2